MKJP/KIN METAR and TAF weather

Enter ICAO airport designator
Station Type Date Time Source
MKJP METAR 2021/10/24 20:00 UTC NOAA

MKJP 242000Z 12020KT 9999 FEW020 SCT022CB 29/24 Q1013


Station Type Date Time Source
MKJP Decoded METAR 2021/10/24 20:00 UTC NOAA

Kingston / Norman Manley, Jamaica (MKJP) 17-56N 076-47W 14M
Oct 24, 2021 - 04:00 PM EDT / 2021.10.24 2000 UTC
Wind: from the ESE (120 degrees) at 23 MPH (20 KT):0
Visibility: greater than 7 mile(s):0
Sky conditions: partly cloudy
Weather: Cumulonimbus clouds observed
Temperature: 84 F (29 C)
Dew Point: 75 F (24 C)
Relative Humidity: 74%
Pressure (altimeter): 29.91 in. Hg (1013 hPa)
ob: MKJP 242000Z 12020KT 9999 FEW020 SCT022CB 29/24 Q1013
cycle: 20

Station Type Date Time Source
MKJP TAF 2021/10/24 18:15 UTC NOAA

TAF MKJP 241715Z 2418/2518 13020KT 9999 FEW022 FEW024CB
BECMG 2500/2502 36004KT FEW022
BECMG 2514/2516 13020KT

Example: see airport list